createdAt,value
2019-02-07T00:02:38.980Z,101129.05
2019-02-07T00:07:41.712Z,101111.61
2019-02-07T00:12:44.399Z,101103.05
2019-02-07T00:17:47.615Z,101089.64
2019-02-07T00:22:50.306Z,101083.25
2019-02-07T00:27:53.010Z,101073.80
2019-02-07T00:32:55.708Z,101064.26
2019-02-07T00:37:58.407Z,101053.02
2019-02-07T00:43:01.410Z,101046.14
2019-02-07T00:48:04.518Z,101042.69
2019-02-07T00:53:07.239Z,101039.22
2019-02-07T00:58:09.938Z,101033.05
2019-02-07T01:03:12.664Z,101017.98
2019-02-07T01:08:15.887Z,101014.17
2019-02-07T01:13:18.583Z,101004.72
2019-02-07T01:18:21.614Z,100998.73
2019-02-07T01:23:24.323Z,100995.33
2019-02-07T01:28:27.009Z,100985.84
2019-02-07T01:33:29.815Z,100983.19
2019-02-07T01:38:32.511Z,100964.97
2019-02-07T01:43:35.203Z,100960.92
2019-02-07T01:48:37.899Z,100954.25
2019-02-07T01:53:40.592Z,100934.25
2019-02-07T01:58:43.338Z,100924.73
2019-02-07T02:03:46.031Z,100914.80
2019-02-07T02:08:48.748Z,100909.88
2019-02-07T02:13:51.572Z,100887.63
2019-02-07T02:18:54.484Z,100874.14
2019-02-07T02:23:57.200Z,100875.45
2019-02-07T02:29:04.797Z,100859.05
2019-02-07T02:34:07.679Z,100850.83
2019-02-07T02:39:10.379Z,100846.09
2019-02-07T02:44:13.059Z,100825.73
2019-02-07T02:49:15.776Z,100825.27
2019-02-07T02:54:32.939Z,100805.34
2019-02-07T02:59:35.660Z,100810.13
2019-02-07T03:04:56.331Z,100784.02
2019-02-07T03:10:24.286Z,100770.70
2019-02-07T03:15:50.172Z,100781.88
2019-02-07T03:21:11.033Z,100771.92
2019-02-07T03:26:36.420Z,100765.70
2019-02-07T03:31:57.124Z,100757.58
2019-02-07T03:37:11.761Z,100747.70
2019-02-07T03:42:43.161Z,100739.88
2019-02-07T03:48:17.284Z,100735.06
2019-02-07T03:53:39.631Z,100713.11
2019-02-07T03:58:51.674Z,100711.49
2019-02-07T04:04:09.075Z,100710.28
2019-02-07T04:09:29.659Z,100714.34
2019-02-07T04:14:50.203Z,100699.31
2019-02-07T04:20:13.758Z,100700.06
2019-02-07T04:25:34.660Z,100690.35
2019-02-07T04:30:50.471Z,100667.03
2019-02-07T04:36:07.685Z,100654.20
2019-02-07T04:41:41.222Z,100644.84
2019-02-07T04:59:50.523Z,100592.02
2019-02-07T05:05:50.856Z,100581.45
2019-02-07T05:11:16.519Z,100568.62
2019-02-07T05:16:51.414Z,100552.81
2019-02-07T05:22:10.376Z,100538.66
2019-02-07T05:27:31.049Z,100537.36
2019-02-07T05:32:45.071Z,100523.87
2019-02-07T05:37:56.459Z,100502.77
2019-02-07T05:43:19.064Z,100489.32
2019-02-07T05:48:47.408Z,100486.55
2019-02-07T05:54:12.903Z,100486.59
2019-02-07T05:59:45.221Z,100492.42
2019-02-07T06:05:13.415Z,100489.33
2019-02-07T06:10:50.506Z,100492.20
2019-02-07T06:16:11.212Z,100478.17
2019-02-07T06:21:26.190Z,100463.28
2019-02-07T06:26:48.592Z,100464.30
2019-02-07T06:31:58.776Z,100457.91
2019-02-07T06:37:19.566Z,100445.78
2019-02-07T06:42:29.779Z,100446.86
2019-02-07T06:47:44.867Z,100448.09
2019-02-07T06:53:06.163Z,100443.47
2019-02-07T06:58:34.075Z,100437.20
2019-02-07T07:04:03.063Z,100424.41
2019-02-07T07:09:26.934Z,100417.17
2019-02-07T07:15:00.884Z,100407.61
2019-02-07T07:20:30.689Z,100403.16
2019-02-07T07:25:48.090Z,100406.30
2019-02-07T07:31:08.606Z,100392.44
2019-02-07T07:36:22.427Z,100391.47
2019-02-07T07:41:43.237Z,100376.69
2019-02-07T07:47:03.720Z,100381.41
2019-02-07T07:52:24.209Z,100377.89
2019-02-07T07:57:39.860Z,100368.62
2019-02-07T08:03:17.256Z,100365.13
2019-02-07T08:08:38.012Z,100360.35
2019-02-07T08:13:58.579Z,100355.70
2019-02-07T08:19:19.072Z,100356.19
2019-02-07T08:24:50.038Z,100345.36
2019-02-07T08:30:10.513Z,100350.09
2019-02-07T08:35:32.021Z,100351.98
2019-02-07T08:41:06.205Z,100355.75
2019-02-07T08:46:37.408Z,100349.00
2019-02-07T08:52:09.526Z,100350.35
2019-02-07T08:57:31.846Z,100349.54
2019-02-07T09:02:51.878Z,100350.90
2019-02-07T09:13:43.213Z,100333.83
2019-02-07T09:19:11.425Z,100334.43
2019-02-07T09:24:32.698Z,100323.50
2019-02-07T09:30:12.967Z,100319.98
2019-02-07T09:35:32.956Z,100320.47
2019-02-07T09:40:50.539Z,100318.52
2019-02-07T09:46:12.842Z,100307.95
2019-02-07T09:51:33.267Z,100313.37
2019-02-07T09:56:55.175Z,100320.33
2019-02-07T10:02:12.256Z,100313.92
2019-02-07T10:07:34.593Z,100310.76
2019-02-07T10:12:56.893Z,100313.52
2019-02-07T10:18:19.204Z,100318.59
2019-02-07T10:23:53.245Z,100317.34
2019-02-07T10:29:24.090Z,100315.55
2019-02-07T10:34:44.813Z,100319.53
2019-02-07T10:40:07.136Z,100328.11
2019-02-07T10:45:33.780Z,100314.92
2019-02-07T10:50:58.894Z,100322.52
2019-02-07T10:56:16.060Z,100325.48
2019-02-07T11:01:43.642Z,100323.20
2019-02-07T11:06:56.259Z,100323.16
2019-02-07T11:12:33.251Z,100335.28
2019-02-07T11:18:04.518Z,100311.09
2019-02-07T11:23:44.872Z,100309.90
2019-02-07T11:29:05.386Z,100299.27
2019-02-07T11:34:21.472Z,100304.58
2019-02-07T11:39:46.662Z,100313.11
2019-02-07T11:45:07.376Z,100307.11
2019-02-07T11:50:29.781Z,100301.22
2019-02-07T11:55:59.076Z,100291.99
2019-02-07T12:01:26.463Z,100285.52
2019-02-07T12:06:51.917Z,100283.05
2019-02-07T12:12:17.111Z,100273.83
2019-02-07T12:17:45.534Z,100267.50
2019-02-07T12:23:05.954Z,100266.78
2019-02-07T12:28:28.373Z,100259.48
2019-02-07T12:33:50.678Z,100247.23
2019-02-07T12:39:15.571Z,100256.10
2019-02-07T12:44:52.809Z,100248.77
2019-02-07T12:50:13.236Z,100258.94
2019-02-07T12:55:26.808Z,100253.05
2019-02-07T13:00:51.215Z,100238.55
2019-02-07T13:06:05.731Z,100243.84
2019-02-07T13:11:33.458Z,100231.77
2019-02-07T13:16:45.944Z,100236.41
2019-02-07T13:22:10.274Z,100243.56
2019-02-07T13:27:24.820Z,100241.27
2019-02-07T13:32:46.333Z,100231.24
2019-02-07T13:38:26.384Z,100233.86
2019-02-07T13:43:47.290Z,100237.14
2019-02-07T13:49:15.459Z,100239.41
2019-02-07T13:54:33.932Z,100238.99
2019-02-07T13:59:48.029Z,100250.19
2019-02-07T14:05:12.906Z,100244.16
2019-02-07T14:10:44.357Z,100257.46
2019-02-07T14:16:24.606Z,100266.63
2019-02-07T14:21:45.480Z,100277.79
2019-02-07T14:27:07.787Z,100282.60
2019-02-07T14:32:30.318Z,100278.30
2019-02-07T14:37:55.375Z,100293.14
2019-02-07T14:43:10.881Z,100293.36
2019-02-07T14:48:23.628Z,100301.80
2019-02-07T14:53:26.398Z,100304.36
2019-02-07T14:58:29.347Z,100301.11
2019-02-07T15:03:32.034Z,100294.21
2019-02-07T15:08:34.764Z,100300.59
2019-02-07T15:13:37.561Z,100301.97
2019-02-07T15:18:40.635Z,100294.50
2019-02-07T15:23:43.352Z,100298.72
2019-02-07T15:28:46.027Z,100300.72
2019-02-07T15:33:48.764Z,100310.52
2019-02-07T15:38:51.431Z,100306.64
2019-02-07T15:43:54.098Z,100300.57
2019-02-07T15:48:57.087Z,100298.28
2019-02-07T15:53:59.836Z,100301.77
2019-02-07T15:59:14.685Z,100292.91
2019-02-07T16:04:20.699Z,100291.41
2019-02-07T16:09:23.678Z,100301.81
2019-02-07T16:14:26.460Z,100304.56
2019-02-07T16:19:30.038Z,100303.60
2019-02-07T16:24:32.737Z,100307.12
2019-02-07T16:29:35.392Z,100304.94
2019-02-07T16:34:38.099Z,100312.97
2019-02-07T16:39:40.934Z,100323.00
2019-02-07T16:44:43.612Z,100315.63
2019-02-07T16:49:46.597Z,100325.48
2019-02-07T16:54:50.821Z,100316.28
2019-02-07T16:59:53.888Z,100333.84
2019-02-07T17:04:56.851Z,100333.81
2019-02-07T17:09:59.914Z,100339.97
2019-02-07T17:15:04.712Z,100348.08
2019-02-07T17:20:15.037Z,100338.47
2019-02-07T17:25:18.241Z,100354.84
2019-02-07T17:30:21.241Z,100339.20
2019-02-07T17:35:24.319Z,100342.42
2019-02-07T17:40:27.001Z,100342.48
2019-02-07T17:45:29.795Z,100356.76
2019-02-07T17:50:32.729Z,100358.91
2019-02-07T17:55:35.403Z,100372.89
2019-02-07T18:01:01.932Z,100359.94
2019-02-07T18:06:06.812Z,100367.11
2019-02-07T18:11:09.538Z,100367.50
2019-02-07T18:16:12.300Z,100375.30
2019-02-07T18:21:14.973Z,100379.32
2019-02-07T18:26:17.640Z,100375.02
2019-02-07T18:31:20.312Z,100379.58
2019-02-07T18:36:23.372Z,100393.52
2019-02-07T18:41:26.071Z,100385.11
2019-02-07T18:46:28.751Z,100389.35
2019-02-07T18:51:31.564Z,100386.80
2019-02-07T18:56:34.336Z,100389.34
2019-02-07T19:01:37.007Z,100379.25
2019-02-07T19:06:39.699Z,100378.20
2019-02-07T19:11:42.507Z,100385.16
2019-02-07T19:16:45.367Z,100391.50
2019-02-07T19:21:56.726Z,100384.08
2019-02-07T19:26:52.613Z,100397.50
2019-02-07T19:31:55.281Z,100406.78
2019-02-07T19:36:57.946Z,100413.34
2019-02-07T19:42:00.923Z,100417.95
2019-02-07T19:47:03.609Z,100404.00
2019-02-07T19:52:08.523Z,100418.80
2019-02-07T19:57:11.339Z,100429.77
2019-02-07T20:02:14.355Z,100426.98
2019-02-07T20:07:17.133Z,100444.22
2019-02-07T20:12:19.913Z,100437.32
2019-02-07T20:17:22.584Z,100454.91
2019-02-07T20:22:25.656Z,100461.05
2019-02-07T20:27:28.329Z,100450.05
2019-02-07T20:32:31.013Z,100467.77
2019-02-07T20:37:33.884Z,100468.77
2019-02-07T20:42:36.568Z,100489.98
2019-02-07T20:47:39.298Z,100474.87
2019-02-07T20:52:42.278Z,100487.16
2019-02-07T20:57:45.100Z,100481.88
2019-02-07T21:02:47.910Z,100481.98
2019-02-07T21:07:50.600Z,100478.78
2019-02-07T21:12:53.277Z,100490.96
2019-02-07T21:17:56.257Z,100512.55
2019-02-07T21:22:59.615Z,100507.72
2019-02-07T21:28:02.390Z,100515.61
2019-02-07T21:33:05.852Z,100532.28
2019-02-07T21:38:08.910Z,100552.26
2019-02-07T21:43:11.565Z,100590.25
2019-02-07T21:48:14.263Z,100597.97
2019-02-07T21:53:16.937Z,100596.17
2019-02-07T21:58:19.600Z,100621.73
2019-02-07T22:03:22.360Z,100622.55
2019-02-07T22:08:25.064Z,100634.94
2019-02-07T22:13:28.039Z,100641.09
2019-02-07T22:18:30.717Z,100633.17
2019-02-07T22:23:33.377Z,100630.47
2019-02-07T22:28:36.066Z,100647.81
2019-02-07T22:33:38.727Z,100663.81
2019-02-07T22:38:41.407Z,100638.23
2019-02-07T22:43:44.110Z,100650.66
2019-02-07T22:48:46.783Z,100669.14
2019-02-07T22:53:49.459Z,100660.18
2019-02-07T22:58:52.144Z,100645.88
2019-02-07T23:04:04.371Z,100651.44
2019-02-07T23:09:10.533Z,100664.96
2019-02-07T23:14:13.537Z,100669.66
2019-02-07T23:19:16.199Z,100681.91
2019-02-07T23:24:18.901Z,100677.38
2019-02-07T23:29:21.965Z,100667.61
2019-02-07T23:34:24.627Z,100675.39
2019-02-07T23:39:27.299Z,100677.60
2019-02-07T23:44:30.163Z,100675.56
2019-02-07T23:49:32.826Z,100686.56
2019-02-07T23:54:35.517Z,100687.56
2019-02-07T23:59:38.198Z,100686.95
